sensor_id;sensor_type;location;lat;lon;timestamp;temperature;humidity
67529;DHT22;54366;51.980;5.856;2023-04-30T00:01:04;10.00;73.30
67529;DHT22;54366;51.980;5.856;2023-04-30T00:03:37;9.90;73.70
67529;DHT22;54366;51.980;5.856;2023-04-30T00:06:10;9.90;73.70
67529;DHT22;54366;51.980;5.856;2023-04-30T00:08:43;9.80;73.60
67529;DHT22;54366;51.980;5.856;2023-04-30T00:11:16;9.80;73.40
67529;DHT22;54366;51.980;5.856;2023-04-30T00:13:42;9.80;73.70
67529;DHT22;54366;51.980;5.856;2023-04-30T00:16:15;9.80;74.00
67529;DHT22;54366;51.980;5.856;2023-04-30T00:18:48;9.70;74.00
67529;DHT22;54366;51.980;5.856;2023-04-30T00:21:21;9.70;74.30
67529;DHT22;54366;51.980;5.856;2023-04-30T00:23:54;9.70;74.40
67529;DHT22;54366;51.980;5.856;2023-04-30T00:26:27;9.70;74.40
67529;DHT22;54366;51.980;5.856;2023-04-30T00:28:54;9.70;74.40
67529;DHT22;54366;51.980;5.856;2023-04-30T00:31:26;9.70;74.50
67529;DHT22;54366;51.980;5.856;2023-04-30T00:33:59;9.70;74.30
67529;DHT22;54366;51.980;5.856;2023-04-30T00:36:39;9.70;73.90
67529;DHT22;54366;51.980;5.856;2023-04-30T00:39:12;9.60;74.10
67529;DHT22;54366;51.980;5.856;2023-04-30T00:41:45;9.60;74.10
67529;DHT22;54366;51.980;5.856;2023-04-30T00:44:11;9.60;74.30
67529;DHT22;54366;51.980;5.856;2023-04-30T00:46:44;9.50;74.70
67529;DHT22;54366;51.980;5.856;2023-04-30T00:49:17;9.60;74.80
67529;DHT22;54366;51.980;5.856;2023-04-30T00:51:45;9.50;74.80
67529;DHT22;54366;51.980;5.856;2023-04-30T00:54:19;9.50;74.90
67529;DHT22;54366;51.980;5.856;2023-04-30T00:56:51;9.50;74.90
67529;DHT22;54366;51.980;5.856;2023-04-30T00:59:24;9.50;74.80
67529;DHT22;54366;51.980;5.856;2023-04-30T01:01:52;9.50;74.90
67529;DHT22;54366;51.980;5.856;2023-04-30T01:04:25;9.40;75.00
67529;DHT22;54366;51.980;5.856;2023-04-30T01:06:59;9.40;75.20
67529;DHT22;54366;51.980;5.856;2023-04-30T01:09:33;9.40;75.30
67529;DHT22;54366;51.980;5.856;2023-04-30T01:12:19;9.40;75.20
67529;DHT22;54366;51.980;5.856;2023-04-30T01:17:53;9.30;74.90
67529;DHT22;54366;51.980;5.856;2023-04-30T01:20:28;9.30;75.20
67529;DHT22;54366;51.980;5.856;2023-04-30T01:24:27;9.20;75.30
67529;DHT22;54366;51.980;5.856;2023-04-30T01:29:57;9.10;75.20
67529;DHT22;54366;51.980;5.856;2023-04-30T01:32:44;9.20;75.40
67529;DHT22;54366;51.980;5.856;2023-04-30T01:35:16;9.10;75.40
67529;DHT22;54366;51.980;5.856;2023-04-30T01:41:37;9.10;75.80
67529;DHT22;54366;51.980;5.856;2023-04-30T01:47:56;9.10;75.50
67529;DHT22;54366;51.980;5.856;2023-04-30T01:53:56;9.00;76.10
67529;DHT22;54366;51.980;5.856;2023-04-30T01:56:42;8.90;76.10
67529;DHT22;54366;51.980;5.856;2023-04-30T01:59:16;8.90;76.20
67529;DHT22;54366;51.980;5.856;2023-04-30T02:01:50;8.90;76.10
67529;DHT22;54366;51.980;5.856;2023-04-30T02:04:23;8.90;76.20
67529;DHT22;54366;51.980;5.856;2023-04-30T02:06:56;8.80;76.40
67529;DHT22;54366;51.980;5.856;2023-04-30T02:09:30;8.80;76.60
67529;DHT22;54366;51.980;5.856;2023-04-30T02:11:57;8.70;76.70
67529;DHT22;54366;51.980;5.856;2023-04-30T02:14:30;8.70;76.70
67529;DHT22;54366;51.980;5.856;2023-04-30T02:16:57;8.80;76.60
67529;DHT22;54366;51.980;5.856;2023-04-30T02:19:30;8.70;76.50
67529;DHT22;54366;51.980;5.856;2023-04-30T02:22:02;8.70;76.50
67529;DHT22;54366;51.980;5.856;2023-04-30T02:24:29;8.80;76.50
67529;DHT22;54366;51.980;5.856;2023-04-30T02:27:01;8.70;76.60
67529;DHT22;54366;51.980;5.856;2023-04-30T02:29:34;8.80;76.50
67529;DHT22;54366;51.980;5.856;2023-04-30T02:32:07;8.80;76.30
67529;DHT22;54366;51.980;5.856;2023-04-30T02:34:40;8.80;76.50
67529;DHT22;54366;51.980;5.856;2023-04-30T02:37:20;8.80;76.60
67529;DHT22;54366;51.980;5.856;2023-04-30T02:39:52;8.80;76.30
67529;DHT22;54366;51.980;5.856;2023-04-30T02:42:26;8.80;76.40
67529;DHT22;54366;51.980;5.856;2023-04-30T02:44:52;8.80;76.40
67529;DHT22;54366;51.980;5.856;2023-04-30T02:47:24;8.80;76.30
67529;DHT22;54366;51.980;5.856;2023-04-30T02:49:57;8.80;76.20
67529;DHT22;54366;51.980;5.856;2023-04-30T02:52:24;8.80;76.10
67529;DHT22;54366;51.980;5.856;2023-04-30T02:54:57;8.80;76.20
67529;DHT22;54366;51.980;5.856;2023-04-30T02:57:30;8.80;76.10
67529;DHT22;54366;51.980;5.856;2023-04-30T02:59:57;8.80;76.20
67529;DHT22;54366;51.980;5.856;2023-04-30T03:02:29;8.70;75.90
67529;DHT22;54366;51.980;5.856;2023-04-30T03:05:02;8.70;76.30
67529;DHT22;54366;51.980;5.856;2023-04-30T03:07:35;8.70;76.40
67529;DHT22;54366;51.980;5.856;2023-04-30T03:10:09;8.70;76.40
67529;DHT22;54366;51.980;5.856;2023-04-30T03:12:35;8.70;76.50
67529;DHT22;54366;51.980;5.856;2023-04-30T03:15:09;8.70;76.60
67529;DHT22;54366;51.980;5.856;2023-04-30T03:17:42;8.70;76.70
67529;DHT22;54366;51.980;5.856;2023-04-30T03:20:15;8.70;76.50
67529;DHT22;54366;51.980;5.856;2023-04-30T03:22:48;8.70;76.60
67529;DHT22;54366;51.980;5.856;2023-04-30T03:25:21;8.70;76.60
67529;DHT22;54366;51.980;5.856;2023-04-30T03:27:48;8.70;76.50
67529;DHT22;54366;51.980;5.856;2023-04-30T03:30:20;8.70;76.40
67529;DHT22;54366;51.980;5.856;2023-04-30T03:32:53;8.70;76.50
67529;DHT22;54366;51.980;5.856;2023-04-30T03:35:26;8.70;76.50
67529;DHT22;54366;51.980;5.856;2023-04-30T03:38:06;8.70;76.40
67529;DHT22;54366;51.980;5.856;2023-04-30T03:40:45;8.70;76.50
67529;DHT22;54366;51.980;5.856;2023-04-30T03:43:18;8.60;76.50
67529;DHT22;54366;51.980;5.856;2023-04-30T03:45:52;8.70;76.80
67529;DHT22;54366;51.980;5.856;2023-04-30T03:48:25;8.60;76.90
67529;DHT22;54366;51.980;5.856;2023-04-30T03:50:58;8.60;76.80
67529;DHT22;54366;51.980;5.856;2023-04-30T03:53:31;8.60;76.60
67529;DHT22;54366;51.980;5.856;2023-04-30T03:56:05;8.60;76.90
67529;DHT22;54366;51.980;5.856;2023-04-30T03:58:32;8.60;76.90
67529;DHT22;54366;51.980;5.856;2023-04-30T04:01:06;8.60;76.70
67529;DHT22;54366;51.980;5.856;2023-04-30T04:03:38;8.50;76.60
67529;DHT22;54366;51.980;5.856;2023-04-30T04:06:12;8.50;76.40
67529;DHT22;54366;51.980;5.856;2023-04-30T04:08:45;8.50;76.50
67529;DHT22;54366;51.980;5.856;2023-04-30T04:11:18;8.50;76.80
67529;DHT22;54366;51.980;5.856;2023-04-30T04:13:52;8.50;76.60
67529;DHT22;54366;51.980;5.856;2023-04-30T04:16:25;8.50;76.60
67529;DHT22;54366;51.980;5.856;2023-04-30T04:18:59;8.50;77.20
67529;DHT22;54366;51.980;5.856;2023-04-30T04:21:33;8.50;76.90
67529;DHT22;54366;51.980;5.856;2023-04-30T04:24:00;8.60;76.90
67529;DHT22;54366;51.980;5.856;2023-04-30T04:26:40;8.60;76.80
67529;DHT22;54366;51.980;5.856;2023-04-30T04:29:13;8.60;76.70
67529;DHT22;54366;51.980;5.856;2023-04-30T04:31:45;8.60;76.70
67529;DHT22;54366;51.980;5.856;2023-04-30T04:34:21;8.70;76.70
67529;DHT22;54366;51.980;5.856;2023-04-30T04:36:53;8.70;76.70
67529;DHT22;54366;51.980;5.856;2023-04-30T04:39:34;8.70;76.50
67529;DHT22;54366;51.980;5.856;2023-04-30T04:42:07;8.70;76.80
67529;DHT22;54366;51.980;5.856;2023-04-30T04:44:34;8.70;76.40
67529;DHT22;54366;51.980;5.856;2023-04-30T04:47:08;8.70;76.50
67529;DHT22;54366;51.980;5.856;2023-04-30T04:49:41;8.70;76.50
67529;DHT22;54366;51.980;5.856;2023-04-30T04:52:14;8.70;76.40
67529;DHT22;54366;51.980;5.856;2023-04-30T04:54:47;8.60;76.40
67529;DHT22;54366;51.980;5.856;2023-04-30T04:57:20;8.70;76.50
67529;DHT22;54366;51.980;5.856;2023-04-30T04:59:47;8.70;76.60
67529;DHT22;54366;51.980;5.856;2023-04-30T05:02:20;8.70;76.90
67529;DHT22;54366;51.980;5.856;2023-04-30T05:04:55;8.70;77.00
67529;DHT22;54366;51.980;5.856;2023-04-30T05:07:28;8.70;77.00
67529;DHT22;54366;51.980;5.856;2023-04-30T05:10:02;8.80;76.90
67529;DHT22;54366;51.980;5.856;2023-04-30T05:12:28;8.80;77.10
67529;DHT22;54366;51.980;5.856;2023-04-30T05:15:00;8.80;77.10
67529;DHT22;54366;51.980;5.856;2023-04-30T05:17:33;8.80;77.10
67529;DHT22;54366;51.980;5.856;2023-04-30T05:20:07;8.90;77.20
67529;DHT22;54366;51.980;5.856;2023-04-30T05:22:40;8.90;77.00
67529;DHT22;54366;51.980;5.856;2023-04-30T05:25:07;8.90;77.50
67529;DHT22;54366;51.980;5.856;2023-04-30T05:27:40;8.90;78.10
67529;DHT22;54366;51.980;5.856;2023-04-30T05:30:13;8.90;77.40
67529;DHT22;54366;51.980;5.856;2023-04-30T05:32:49;9.00;77.50
67529;DHT22;54366;51.980;5.856;2023-04-30T05:35:23;9.00;77.50
67529;DHT22;54366;51.980;5.856;2023-04-30T05:37:56;9.10;77.60
67529;DHT22;54366;51.980;5.856;2023-04-30T05:40:36;9.00;76.90
67529;DHT22;54366;51.980;5.856;2023-04-30T05:43:03;9.10;77.20
67529;DHT22;54366;51.980;5.856;2023-04-30T05:45:36;9.10;77.30
67529;DHT22;54366;51.980;5.856;2023-04-30T05:48:09;9.20;77.00
67529;DHT22;54366;51.980;5.856;2023-04-30T05:50:36;9.20;77.10
67529;DHT22;54366;51.980;5.856;2023-04-30T05:53:08;9.30;77.10
67529;DHT22;54366;51.980;5.856;2023-04-30T05:55:41;9.30;77.00
67529;DHT22;54366;51.980;5.856;2023-04-30T05:58:14;9.30;77.00
67529;DHT22;54366;51.980;5.856;2023-04-30T06:00:48;9.40;77.00
67529;DHT22;54366;51.980;5.856;2023-04-30T06:03:16;9.40;76.60
67529;DHT22;54366;51.980;5.856;2023-04-30T06:05:48;9.50;76.60
67529;DHT22;54366;51.980;5.856;2023-04-30T06:08:22;9.50;76.70
67529;DHT22;54366;51.980;5.856;2023-04-30T06:10:54;9.60;76.50
67529;DHT22;54366;51.980;5.856;2023-04-30T06:13:27;9.70;76.30
67529;DHT22;54366;51.980;5.856;2023-04-30T06:16:00;9.70;76.30
67529;DHT22;54366;51.980;5.856;2023-04-30T06:18:33;9.70;76.30
67529;DHT22;54366;51.980;5.856;2023-04-30T06:21:00;9.80;76.20
67529;DHT22;54366;51.980;5.856;2023-04-30T06:23:32;9.90;76.60
67529;DHT22;54366;51.980;5.856;2023-04-30T06:26:05;9.90;76.10
67529;DHT22;54366;51.980;5.856;2023-04-30T06:28:38;10.00;76.00
67529;DHT22;54366;51.980;5.856;2023-04-30T06:31:11;10.10;75.70
67529;DHT22;54366;51.980;5.856;2023-04-30T06:33:44;10.20;75.40
67529;DHT22;54366;51.980;5.856;2023-04-30T06:36:11;10.30;75.30
67529;DHT22;54366;51.980;5.856;2023-04-30T06:38:50;10.40;75.20
67529;DHT22;54366;51.980;5.856;2023-04-30T06:41:22;10.50;74.90
67529;DHT22;54366;51.980;5.856;2023-04-30T06:43:49;10.60;74.10
67529;DHT22;54366;51.980;5.856;2023-04-30T06:46:21;10.70;74.00
67529;DHT22;54366;51.980;5.856;2023-04-30T06:48:48;10.80;74.00
67529;DHT22;54366;51.980;5.856;2023-04-30T06:51:20;11.00;73.60
67529;DHT22;54366;51.980;5.856;2023-04-30T06:53:53;11.10;73.20
67529;DHT22;54366;51.980;5.856;2023-04-30T06:56:26;11.20;72.90
67529;DHT22;54366;51.980;5.856;2023-04-30T06:58:53;11.30;72.50
67529;DHT22;54366;51.980;5.856;2023-04-30T07:01:25;11.40;72.20
67529;DHT22;54366;51.980;5.856;2023-04-30T07:03:58;11.50;72.10
67529;DHT22;54366;51.980;5.856;2023-04-30T07:06:31;11.60;71.70
67529;DHT22;54366;51.980;5.856;2023-04-30T07:08:58;11.70;71.30
67529;DHT22;54366;51.980;5.856;2023-04-30T07:11:31;11.90;71.30
67529;DHT22;54366;51.980;5.856;2023-04-30T07:13:58;12.00;70.60
67529;DHT22;54366;51.980;5.856;2023-04-30T07:16:31;12.10;70.50
67529;DHT22;54366;51.980;5.856;2023-04-30T07:19:04;12.20;69.50
67529;DHT22;54366;51.980;5.856;2023-04-30T07:21:37;12.30;69.20
67529;DHT22;54366;51.980;5.856;2023-04-30T07:24:10;12.40;69.20
67529;DHT22;54366;51.980;5.856;2023-04-30T07:26:43;12.50;69.00
67529;DHT22;54366;51.980;5.856;2023-04-30T07:29:16;12.60;68.40
67529;DHT22;54366;51.980;5.856;2023-04-30T07:31:43;12.70;68.20
67529;DHT22;54366;51.980;5.856;2023-04-30T07:34:15;12.80;67.60
67529;DHT22;54366;51.980;5.856;2023-04-30T07:36:48;12.90;67.60
67529;DHT22;54366;51.980;5.856;2023-04-30T07:39:28;12.90;66.90
67529;DHT22;54366;51.980;5.856;2023-04-30T07:42:03;13.00;66.70
67529;DHT22;54366;51.980;5.856;2023-04-30T07:44:30;13.10;66.60
67529;DHT22;54366;51.980;5.856;2023-04-30T07:47:04;13.20;66.70
67529;DHT22;54366;51.980;5.856;2023-04-30T07:49:36;13.30;66.70
67529;DHT22;54366;51.980;5.856;2023-04-30T07:52:09;13.50;66.30
67529;DHT22;54366;51.980;5.856;2023-04-30T07:54:43;13.60;65.90
67529;DHT22;54366;51.980;5.856;2023-04-30T07:57:16;13.70;65.30
67529;DHT22;54366;51.980;5.856;2023-04-30T07:59:43;13.80;64.50
67529;DHT22;54366;51.980;5.856;2023-04-30T08:02:15;13.90;64.30
67529;DHT22;54366;51.980;5.856;2023-04-30T08:04:48;13.90;63.80
67529;DHT22;54366;51.980;5.856;2023-04-30T08:07:15;14.00;64.20
67529;DHT22;54366;51.980;5.856;2023-04-30T08:09:47;14.10;63.40
67529;DHT22;54366;51.980;5.856;2023-04-30T08:12:20;14.20;63.00
67529;DHT22;54366;51.980;5.856;2023-04-30T08:15:02;14.20;62.60
67529;DHT22;54366;51.980;5.856;2023-04-30T08:17:35;14.30;63.10
67529;DHT22;54366;51.980;5.856;2023-04-30T08:20:05;14.40;62.80
67529;DHT22;54366;51.980;5.856;2023-04-30T08:22:39;14.50;62.80
67529;DHT22;54366;51.980;5.856;2023-04-30T08:25:12;14.70;62.60
67529;DHT22;54366;51.980;5.856;2023-04-30T08:27:45;14.80;62.60
67529;DHT22;54366;51.980;5.856;2023-04-30T08:30:18;15.00;62.50
67529;DHT22;54366;51.980;5.856;2023-04-30T08:32:51;15.20;62.10
67529;DHT22;54366;51.980;5.856;2023-04-30T08:35:18;15.30;61.10
67529;DHT22;54366;51.980;5.856;2023-04-30T08:37:51;15.40;60.40
67529;DHT22;54366;51.980;5.856;2023-04-30T08:40:34;15.50;60.40
67529;DHT22;54366;51.980;5.856;2023-04-30T08:43:08;15.70;60.20
67529;DHT22;54366;51.980;5.856;2023-04-30T08:45:42;15.80;59.60
67529;DHT22;54366;51.980;5.856;2023-04-30T08:48:16;15.80;58.90
67529;DHT22;54366;51.980;5.856;2023-04-30T08:50:51;15.90;57.20
67529;DHT22;54366;51.980;5.856;2023-04-30T08:53:23;15.90;57.70
67529;DHT22;54366;51.980;5.856;2023-04-30T08:55:57;15.90;56.50
67529;DHT22;54366;51.980;5.856;2023-04-30T08:58:29;16.00;56.90
67529;DHT22;54366;51.980;5.856;2023-04-30T09:00:58;16.10;57.60
67529;DHT22;54366;51.980;5.856;2023-04-30T09:03:32;16.20;57.80
67529;DHT22;54366;51.980;5.856;2023-04-30T09:05:59;16.40;56.90
67529;DHT22;54366;51.980;5.856;2023-04-30T09:08:45;16.40;56.60
67529;DHT22;54366;51.980;5.856;2023-04-30T09:11:36;16.50;54.80
67529;DHT22;54366;51.980;5.856;2023-04-30T09:14:09;16.50;54.70
67529;DHT22;54366;51.980;5.856;2023-04-30T09:16:47;16.50;55.80
67529;DHT22;54366;51.980;5.856;2023-04-30T09:19:25;16.70;54.90
67529;DHT22;54366;51.980;5.856;2023-04-30T09:21:57;16.80;54.50
67529;DHT22;54366;51.980;5.856;2023-04-30T09:24:44;16.90;53.80
67529;DHT22;54366;51.980;5.856;2023-04-30T09:27:19;17.00;54.00
67529;DHT22;54366;51.980;5.856;2023-04-30T09:29:52;17.20;54.40
67529;DHT22;54366;51.980;5.856;2023-04-30T09:32:25;17.30;53.90
67529;DHT22;54366;51.980;5.856;2023-04-30T09:34:58;17.40;53.20
67529;DHT22;54366;51.980;5.856;2023-04-30T09:37:37;17.60;52.50
67529;DHT22;54366;51.980;5.856;2023-04-30T09:40:17;17.80;52.80
67529;DHT22;54366;51.980;5.856;2023-04-30T09:43:00;17.90;52.40
67529;DHT22;54366;51.980;5.856;2023-04-30T09:45:42;18.00;51.60
67529;DHT22;54366;51.980;5.856;2023-04-30T09:48:23;18.10;51.30
67529;DHT22;54366;51.980;5.856;2023-04-30T09:50:56;18.10;51.70
67529;DHT22;54366;51.980;5.856;2023-04-30T09:53:29;18.30;51.40
67529;DHT22;54366;51.980;5.856;2023-04-30T09:55:57;18.40;50.30
67529;DHT22;54366;51.980;5.856;2023-04-30T09:58:36;18.40;49.90
67529;DHT22;54366;51.980;5.856;2023-04-30T10:01:09;18.50;50.00
67529;DHT22;54366;51.980;5.856;2023-04-30T10:03:42;18.60;50.00
67529;DHT22;54366;51.980;5.856;2023-04-30T10:06:15;18.60;49.80
67529;DHT22;54366;51.980;5.856;2023-04-30T10:08:54;18.80;49.00
67529;DHT22;54366;51.980;5.856;2023-04-30T10:11:29;18.90;48.90
67529;DHT22;54366;51.980;5.856;2023-04-30T10:14:17;19.00;48.60
67529;DHT22;54366;51.980;5.856;2023-04-30T10:17:02;19.10;47.50
67529;DHT22;54366;51.980;5.856;2023-04-30T10:19:38;19.20;48.20
67529;DHT22;54366;51.980;5.856;2023-04-30T10:22:07;19.30;47.10
67529;DHT22;54366;51.980;5.856;2023-04-30T10:24:41;19.40;46.00
67529;DHT22;54366;51.980;5.856;2023-04-30T10:27:14;19.50;45.30
67529;DHT22;54366;51.980;5.856;2023-04-30T10:29:41;19.50;45.80
67529;DHT22;54366;51.980;5.856;2023-04-30T10:32:15;19.60;46.00
67529;DHT22;54366;51.980;5.856;2023-04-30T10:35:09;19.60;46.30
67529;DHT22;54366;51.980;5.856;2023-04-30T10:38:25;19.70;44.70
67529;DHT22;54366;51.980;5.856;2023-04-30T10:40:58;19.80;46.20
67529;DHT22;54366;51.980;5.856;2023-04-30T10:43:37;19.90;45.30
67529;DHT22;54366;51.980;5.856;2023-04-30T10:46:04;20.10;45.30
67529;DHT22;54366;51.980;5.856;2023-04-30T10:48:36;20.20;45.30
67529;DHT22;54366;51.980;5.856;2023-04-30T10:51:09;20.20;44.60
67529;DHT22;54366;51.980;5.856;2023-04-30T10:53:43;20.30;44.30
67529;DHT22;54366;51.980;5.856;2023-04-30T10:56:30;20.30;45.10
67529;DHT22;54366;51.980;5.856;2023-04-30T10:59:03;20.50;45.20
67529;DHT22;54366;51.980;5.856;2023-04-30T11:01:29;20.60;45.00
67529;DHT22;54366;51.980;5.856;2023-04-30T11:04:11;20.80;45.20
67529;DHT22;54366;51.980;5.856;2023-04-30T11:06:49;20.90;44.50
67529;DHT22;54366;51.980;5.856;2023-04-30T11:09:42;21.00;44.60
67529;DHT22;54366;51.980;5.856;2023-04-30T11:12:20;21.10;41.60
67529;DHT22;54366;51.980;5.856;2023-04-30T11:15:05;21.10;42.70
67529;DHT22;54366;51.980;5.856;2023-04-30T11:17:38;21.20;43.00
67529;DHT22;54366;51.980;5.856;2023-04-30T11:20:12;21.30;43.50
67529;DHT22;54366;51.980;5.856;2023-04-30T11:22:39;21.50;43.70
67529;DHT22;54366;51.980;5.856;2023-04-30T11:25:17;21.50;42.60
67529;DHT22;54366;51.980;5.856;2023-04-30T11:27:50;21.60;42.70
67529;DHT22;54366;51.980;5.856;2023-04-30T11:30:23;21.60;42.20
67529;DHT22;54366;51.980;5.856;2023-04-30T11:32:50;21.70;42.70
67529;DHT22;54366;51.980;5.856;2023-04-30T11:35:24;21.70;42.60
67529;DHT22;54366;51.980;5.856;2023-04-30T11:38:04;21.90;43.20
67529;DHT22;54366;51.980;5.856;2023-04-30T11:40:45;22.00;41.80
67529;DHT22;54366;51.980;5.856;2023-04-30T11:43:30;22.10;42.50
67529;DHT22;54366;51.980;5.856;2023-04-30T11:46:15;22.20;41.90
67529;DHT22;54366;51.980;5.856;2023-04-30T11:48:48;22.30;41.00
67529;DHT22;54366;51.980;5.856;2023-04-30T11:51:22;22.20;41.70
67529;DHT22;54366;51.980;5.856;2023-04-30T11:53:56;22.20;40.30
67529;DHT22;54366;51.980;5.856;2023-04-30T11:56:29;22.10;41.10
67529;DHT22;54366;51.980;5.856;2023-04-30T11:58:56;22.20;40.60
67529;DHT22;54366;51.980;5.856;2023-04-30T12:01:30;22.20;41.60
67529;DHT22;54366;51.980;5.856;2023-04-30T12:04:03;22.30;41.50
67529;DHT22;54366;51.980;5.856;2023-04-30T12:06:35;22.50;40.80
67529;DHT22;54366;51.980;5.856;2023-04-30T12:09:03;22.60;41.40
67529;DHT22;54366;51.980;5.856;2023-04-30T12:11:39;22.60;41.20
67529;DHT22;54366;51.980;5.856;2023-04-30T12:14:07;22.70;40.50
67529;DHT22;54366;51.980;5.856;2023-04-30T12:16:49;22.70;40.50
67529;DHT22;54366;51.980;5.856;2023-04-30T12:19:22;22.70;41.50
67529;DHT22;54366;51.980;5.856;2023-04-30T12:21:57;22.80;39.90
67529;DHT22;54366;51.980;5.856;2023-04-30T12:24:26;22.80;40.50
67529;DHT22;54366;51.980;5.856;2023-04-30T12:26:58;22.90;41.00
67529;DHT22;54366;51.980;5.856;2023-04-30T12:29:33;23.00;40.00
67529;DHT22;54366;51.980;5.856;2023-04-30T12:32:00;22.90;40.00
67529;DHT22;54366;51.980;5.856;2023-04-30T12:34:32;23.00;39.90
67529;DHT22;54366;51.980;5.856;2023-04-30T12:37:05;23.00;39.60
67529;DHT22;54366;51.980;5.856;2023-04-30T12:39:46;23.00;40.30
67529;DHT22;54366;51.980;5.856;2023-04-30T12:42:31;23.10;39.20
67529;DHT22;54366;51.980;5.856;2023-04-30T12:45:07;23.10;40.00
67529;DHT22;54366;51.980;5.856;2023-04-30T12:47:40;23.10;39.40
67529;DHT22;54366;51.980;5.856;2023-04-30T12:50:13;23.10;39.00
67529;DHT22;54366;51.980;5.856;2023-04-30T12:52:43;23.20;38.90
67529;DHT22;54366;51.980;5.856;2023-04-30T12:55:17;23.20;38.10
67529;DHT22;54366;51.980;5.856;2023-04-30T12:58:11;23.20;38.80
67529;DHT22;54366;51.980;5.856;2023-04-30T13:00:49;23.20;38.00
67529;DHT22;54366;51.980;5.856;2023-04-30T13:03:22;23.30;36.70
67529;DHT22;54366;51.980;5.856;2023-04-30T13:05:52;23.20;36.50
67529;DHT22;54366;51.980;5.856;2023-04-30T13:08:26;23.10;37.30
67529;DHT22;54366;51.980;5.856;2023-04-30T13:10:52;23.00;38.20
67529;DHT22;54366;51.980;5.856;2023-04-30T13:13:25;23.00;38.10
67529;DHT22;54366;51.980;5.856;2023-04-30T13:15:59;23.10;38.00
67529;DHT22;54366;51.980;5.856;2023-04-30T13:18:32;23.10;38.00
67529;DHT22;54366;51.980;5.856;2023-04-30T13:21:05;23.00;37.60
67529;DHT22;54366;51.980;5.856;2023-04-30T13:23:31;22.90;36.50
67529;DHT22;54366;51.980;5.856;2023-04-30T13:26:04;22.80;36.80
67529;DHT22;54366;51.980;5.856;2023-04-30T13:28:36;22.70;36.10
67529;DHT22;54366;51.980;5.856;2023-04-30T13:31:09;22.60;37.30
67529;DHT22;54366;51.980;5.856;2023-04-30T13:33:42;22.60;36.70
67529;DHT22;54366;51.980;5.856;2023-04-30T13:36:09;22.50;37.70
67529;DHT22;54366;51.980;5.856;2023-04-30T13:38:48;22.50;37.70
67529;DHT22;54366;51.980;5.856;2023-04-30T13:41:20;22.50;38.10
67529;DHT22;54366;51.980;5.856;2023-04-30T13:44:00;22.50;37.80
67529;DHT22;54366;51.980;5.856;2023-04-30T13:46:33;22.30;37.80
67529;DHT22;54366;51.980;5.856;2023-04-30T13:49:06;22.30;38.40
67529;DHT22;54366;51.980;5.856;2023-04-30T13:51:40;22.30;39.10
67529;DHT22;54366;51.980;5.856;2023-04-30T13:54:12;22.30;38.30
67529;DHT22;54366;51.980;5.856;2023-04-30T13:56:45;22.20;38.70
67529;DHT22;54366;51.980;5.856;2023-04-30T13:59:20;22.10;39.00
67529;DHT22;54366;51.980;5.856;2023-04-30T14:01:46;22.00;39.20
67529;DHT22;54366;51.980;5.856;2023-04-30T14:04:19;21.90;39.90
67529;DHT22;54366;51.980;5.856;2023-04-30T14:06:45;21.80;40.40
67529;DHT22;54366;51.980;5.856;2023-04-30T14:09:19;21.80;40.30
67529;DHT22;54366;51.980;5.856;2023-04-30T14:11:52;21.80;40.90
67529;DHT22;54366;51.980;5.856;2023-04-30T14:14:21;21.70;39.70
67529;DHT22;54366;51.980;5.856;2023-04-30T14:16:54;21.60;40.10
67529;DHT22;54366;51.980;5.856;2023-04-30T14:19:21;21.50;40.00
67529;DHT22;54366;51.980;5.856;2023-04-30T14:21:54;21.50;40.80
67529;DHT22;54366;51.980;5.856;2023-04-30T14:24:21;21.50;40.90
67529;DHT22;54366;51.980;5.856;2023-04-30T14:26:53;21.50;40.60
67529;DHT22;54366;51.980;5.856;2023-04-30T14:29:20;21.40;40.80
67529;DHT22;54366;51.980;5.856;2023-04-30T14:31:52;21.40;40.30
67529;DHT22;54366;51.980;5.856;2023-04-30T14:34:25;21.50;40.30
67529;DHT22;54366;51.980;5.856;2023-04-30T14:36:52;21.50;40.40
67529;DHT22;54366;51.980;5.856;2023-04-30T14:39:32;21.50;40.70
67529;DHT22;54366;51.980;5.856;2023-04-30T14:42:04;21.50;40.20
67529;DHT22;54366;51.980;5.856;2023-04-30T14:44:38;21.40;40.00
67529;DHT22;54366;51.980;5.856;2023-04-30T14:47:05;21.40;40.00
67529;DHT22;54366;51.980;5.856;2023-04-30T14:49:37;21.30;40.40
67529;DHT22;54366;51.980;5.856;2023-04-30T14:52:10;21.30;40.70
67529;DHT22;54366;51.980;5.856;2023-04-30T14:54:44;21.30;41.40
67529;DHT22;54366;51.980;5.856;2023-04-30T14:57:10;21.30;41.80
67529;DHT22;54366;51.980;5.856;2023-04-30T14:59:43;21.30;41.60
67529;DHT22;54366;51.980;5.856;2023-04-30T15:02:10;21.20;38.70
67529;DHT22;54366;51.980;5.856;2023-04-30T15:04:42;21.20;39.10
67529;DHT22;54366;51.980;5.856;2023-04-30T15:07:18;21.10;39.30
67529;DHT22;54366;51.980;5.856;2023-04-30T15:09:51;21.20;39.30
67529;DHT22;54366;51.980;5.856;2023-04-30T15:12:18;21.00;38.80
67529;DHT22;54366;51.980;5.856;2023-04-30T15:14:52;21.00;39.70
67529;DHT22;54366;51.980;5.856;2023-04-30T15:17:25;21.00;39.90
67529;DHT22;54366;51.980;5.856;2023-04-30T15:19:58;20.90;40.90
67529;DHT22;54366;51.980;5.856;2023-04-30T15:22:36;20.90;41.40
67529;DHT22;54366;51.980;5.856;2023-04-30T15:25:03;20.90;41.80
67529;DHT22;54366;51.980;5.856;2023-04-30T15:27:37;20.90;41.90
67529;DHT22;54366;51.980;5.856;2023-04-30T15:30:10;20.90;41.80
67529;DHT22;54366;51.980;5.856;2023-04-30T15:32:43;20.90;41.50
67529;DHT22;54366;51.980;5.856;2023-04-30T15:35:09;20.90;40.90
67529;DHT22;54366;51.980;5.856;2023-04-30T15:37:42;20.90;40.70
67529;DHT22;54366;51.980;5.856;2023-04-30T15:40:15;20.90;40.30
67529;DHT22;54366;51.980;5.856;2023-04-30T15:42:54;20.90;40.70
67529;DHT22;54366;51.980;5.856;2023-04-30T15:45:27;20.80;40.10
67529;DHT22;54366;51.980;5.856;2023-04-30T15:47:54;20.80;38.60
67529;DHT22;54366;51.980;5.856;2023-04-30T15:50:26;20.70;39.10
67529;DHT22;54366;51.980;5.856;2023-04-30T15:52:59;20.60;39.50
67529;DHT22;54366;51.980;5.856;2023-04-30T15:55:32;20.60;40.20
67529;DHT22;54366;51.980;5.856;2023-04-30T15:58:05;20.50;40.40
67529;DHT22;54366;51.980;5.856;2023-04-30T16:00:38;20.50;40.70
67529;DHT22;54366;51.980;5.856;2023-04-30T16:03:14;20.50;40.90
67529;DHT22;54366;51.980;5.856;2023-04-30T16:05:46;20.50;40.70
67529;DHT22;54366;51.980;5.856;2023-04-30T16:08:19;20.40;41.80
67529;DHT22;54366;51.980;5.856;2023-04-30T16:10:52;20.40;41.40
67529;DHT22;54366;51.980;5.856;2023-04-30T16:13:25;20.40;40.20
67529;DHT22;54366;51.980;5.856;2023-04-30T16:15:58;20.40;40.50
67529;DHT22;54366;51.980;5.856;2023-04-30T16:18:31;20.40;40.60
67529;DHT22;54366;51.980;5.856;2023-04-30T16:20:57;20.30;40.70
67529;DHT22;54366;51.980;5.856;2023-04-30T16:23:31;20.30;40.50
67529;DHT22;54366;51.980;5.856;2023-04-30T16:25:57;20.20;40.60
67529;DHT22;54366;51.980;5.856;2023-04-30T16:28:30;20.10;40.90
67529;DHT22;54366;51.980;5.856;2023-04-30T16:31:03;20.00;41.00
67529;DHT22;54366;51.980;5.856;2023-04-30T16:33:36;19.90;41.50